createdAt,value
2022-08-17T00:02:25.905Z,21.30
2022-08-17T00:05:31.947Z,21.14
2022-08-17T00:08:38.339Z,20.89
2022-08-17T00:11:43.363Z,20.78
2022-08-17T00:15:10.472Z,20.83
2022-08-17T00:19:04.184Z,20.85
2022-08-17T00:22:29.916Z,20.61
2022-08-17T00:24:58.967Z,20.74
2022-08-17T00:28:00.925Z,20.76
2022-08-17T00:31:02.806Z,20.82
2022-08-17T00:34:06.314Z,20.86
2022-08-17T00:37:08.302Z,20.88
2022-08-17T00:40:13.188Z,20.64
2022-08-17T00:43:15.008Z,20.28
2022-08-17T00:46:28.464Z,20.08
2022-08-17T00:49:31.431Z,20.01
2022-08-17T00:52:37.462Z,19.97
2022-08-17T00:55:39.431Z,19.86
2022-08-17T00:58:41.658Z,19.73
2022-08-17T01:01:44.220Z,19.72
2022-08-17T01:04:49.407Z,19.55
2022-08-17T01:07:51.741Z,19.62
2022-08-17T01:11:01.759Z,20.00
2022-08-17T01:14:04.308Z,20.20
2022-08-17T01:17:07.086Z,20.27
2022-08-17T01:20:09.629Z,19.85
2022-08-17T01:23:11.268Z,19.66
2022-08-17T01:26:20.776Z,19.71
2022-08-17T01:29:24.814Z,19.65
2022-08-17T01:32:28.293Z,19.60
2022-08-17T01:35:29.975Z,19.76
2022-08-17T01:38:32.119Z,19.49
2022-08-17T01:41:34.935Z,19.25
2022-08-17T01:44:37.231Z,19.21
2022-08-17T01:47:41.908Z,19.16
2022-08-17T01:50:44.872Z,19.14
2022-08-17T01:53:52.519Z,19.06
2022-08-17T01:56:54.326Z,19.05
2022-08-17T01:59:56.180Z,19.05
2022-08-17T02:02:58.005Z,19.02
2022-08-17T02:05:59.888Z,19.01
2022-08-17T02:09:03.808Z,18.94
2022-08-17T02:12:37.839Z,18.93
2022-08-17T02:15:29.904Z,18.97
2022-08-17T02:18:31.709Z,19.08
2022-08-17T02:21:34.139Z,18.96
2022-08-17T02:25:00.783Z,18.88
2022-08-17T02:28:00.112Z,18.88
2022-08-17T02:31:08.102Z,18.91
2022-08-17T02:34:10.354Z,18.87
2022-08-17T02:37:12.047Z,18.81
2022-08-17T02:40:13.868Z,18.77
2022-08-17T02:43:15.941Z,18.79
2022-08-17T02:46:17.791Z,18.78
2022-08-17T02:49:22.702Z,18.75
2022-08-17T02:53:01.362Z,18.68
2022-08-17T02:56:07.414Z,18.67
2022-08-17T02:59:09.355Z,18.60
2022-08-17T03:02:12.540Z,18.50
2022-08-17T03:05:17.359Z,18.41
2022-08-17T03:08:20.295Z,18.35
2022-08-17T03:11:22.409Z,18.27
2022-08-17T03:14:26.114Z,18.12
2022-08-17T03:17:28.209Z,18.17
2022-08-17T03:20:36.595Z,18.32
2022-08-17T03:23:41.218Z,18.47
2022-08-17T03:26:43.403Z,18.25
2022-08-17T03:29:45.449Z,18.26
2022-08-17T03:32:49.787Z,18.23
2022-08-17T03:35:52.271Z,18.23
2022-08-17T03:38:54.123Z,18.25
2022-08-17T03:42:31.397Z,18.13
2022-08-17T03:45:53.448Z,18.13
2022-08-17T03:49:13.838Z,18.14
2022-08-17T03:52:34.413Z,18.23
2022-08-17T03:55:56.385Z,18.12
2022-08-17T03:58:58.330Z,18.14
2022-08-17T04:02:11.376Z,18.02
2022-08-17T04:05:15.043Z,17.91
2022-08-17T04:08:16.835Z,17.94
2022-08-17T04:11:18.525Z,18.00
2022-08-17T04:14:20.733Z,18.02
2022-08-17T04:17:26.343Z,18.00
2022-08-17T04:20:29.296Z,17.87
2022-08-17T04:23:33.848Z,18.05
2022-08-17T04:26:52.810Z,17.98
2022-08-17T04:29:56.365Z,18.04
2022-08-17T04:33:07.272Z,18.22
2022-08-17T04:36:09.074Z,18.33
2022-08-17T04:39:11.157Z,18.39
2022-08-17T04:42:17.403Z,18.57
2022-08-17T04:45:19.238Z,18.71
2022-08-17T04:48:21.840Z,18.83
2022-08-17T04:51:28.094Z,18.83
2022-08-17T04:54:30.283Z,18.99
2022-08-17T04:57:39.435Z,19.13
2022-08-17T05:00:41.335Z,19.23
2022-08-17T05:03:44.124Z,19.45
2022-08-17T05:06:46.766Z,19.60
2022-08-17T05:09:48.431Z,19.75
2022-08-17T05:13:05.686Z,19.86
2022-08-17T05:16:09.129Z,20.01
2022-08-17T05:19:10.888Z,20.18
2022-08-17T05:22:14.643Z,20.29
2022-08-17T05:25:25.569Z,20.44
2022-08-17T05:28:28.500Z,20.60
2022-08-17T05:31:31.638Z,20.79
2022-08-17T05:34:33.425Z,21.04
2022-08-17T05:37:35.059Z,21.20
2022-08-17T05:40:37.347Z,21.39
2022-08-17T05:43:41.692Z,21.86
2022-08-17T05:46:49.039Z,21.92
2022-08-17T05:49:51.045Z,22.17
2022-08-17T05:53:10.591Z,22.59
2022-08-17T05:56:22.685Z,22.73
2022-08-17T05:59:53.913Z,22.67
2022-08-17T06:03:22.576Z,23.09
2022-08-17T06:06:36.862Z,23.43
2022-08-17T06:09:52.142Z,23.62
2022-08-17T06:13:15.934Z,23.99
2022-08-17T06:16:31.160Z,23.96
2022-08-17T06:19:59.837Z,24.23
2022-08-17T06:23:10.924Z,24.34
2022-08-17T06:26:21.203Z,24.60
2022-08-17T06:30:00.947Z,24.69
2022-08-17T06:33:13.198Z,24.72
2022-08-17T06:36:23.757Z,24.84
2022-08-17T06:39:38.197Z,24.89
2022-08-17T06:43:06.907Z,24.93
2022-08-17T06:46:11.806Z,25.20
2022-08-17T06:49:34.644Z,25.39
2022-08-17T06:52:47.426Z,25.48
2022-08-17T06:56:03.438Z,25.23
2022-08-17T06:59:07.944Z,25.56
2022-08-17T07:02:15.281Z,25.80
2022-08-17T07:05:21.352Z,25.65
2022-08-17T07:08:35.032Z,25.81
2022-08-17T07:11:50.520Z,26.20
2022-08-17T07:14:56.938Z,26.37
2022-08-17T07:17:59.690Z,26.49
2022-08-17T07:21:17.493Z,26.51
2022-08-17T07:24:29.474Z,26.53
2022-08-17T07:27:37.751Z,26.83
2022-08-17T07:30:47.349Z,27.22
2022-08-17T07:34:08.845Z,27.47
2022-08-17T07:37:10.967Z,27.42
2022-08-17T07:41:07.875Z,27.84
2022-08-17T07:44:15.252Z,28.38
2022-08-17T07:47:37.721Z,28.75
2022-08-17T07:50:39.659Z,29.59
2022-08-17T07:53:41.770Z,29.57
2022-08-17T07:56:45.822Z,30.42
2022-08-17T07:59:59.637Z,31.48
2022-08-17T08:03:23.751Z,32.85
2022-08-17T08:06:27.931Z,33.14
2022-08-17T08:09:45.943Z,33.62
2022-08-17T08:12:53.757Z,34.44
2022-08-17T08:16:13.671Z,34.79
2022-08-17T08:19:20.917Z,35.57
2022-08-17T08:22:30.513Z,36.00
2022-08-17T08:25:56.888Z,36.10
2022-08-17T08:29:19.925Z,37.21
2022-08-17T08:32:34.380Z,37.48
2022-08-17T08:35:54.293Z,37.56
2022-08-17T08:39:04.777Z,38.11
2022-08-17T08:42:15.762Z,38.30
2022-08-17T08:45:53.080Z,39.33
2022-08-17T08:49:11.844Z,39.94
2022-08-17T08:52:21.808Z,40.49
2022-08-17T08:55:59.055Z,39.81
2022-08-17T08:59:09.117Z,40.53
2022-08-17T09:02:28.918Z,40.78
2022-08-17T09:06:01.947Z,39.26
2022-08-17T09:09:24.857Z,41.93
2022-08-17T09:12:32.180Z,41.73
2022-08-17T09:15:42.662Z,41.96
2022-08-17T09:19:02.414Z,41.61
2022-08-17T09:22:17.813Z,43.82
2022-08-17T09:25:28.752Z,43.68
2022-08-17T09:28:36.435Z,42.00
2022-08-17T09:31:49.431Z,42.79
2022-08-17T09:34:55.195Z,46.60
2022-08-17T09:38:11.935Z,45.60
2022-08-17T09:41:25.259Z,46.97
2022-08-17T09:44:31.063Z,48.14
2022-08-17T09:47:45.502Z,47.68
2022-08-17T09:51:06.543Z,47.67
2022-08-17T09:54:45.336Z,47.17
2022-08-17T09:58:05.244Z,46.55
2022-08-17T10:01:21.306Z,47.02
2022-08-17T10:04:35.029Z,46.18
2022-08-17T10:08:16.739Z,47.22
2022-08-17T10:12:07.370Z,48.40
2022-08-17T10:15:37.812Z,48.54
2022-08-17T10:19:05.896Z,47.63
2022-08-17T10:22:38.106Z,43.93
2022-08-17T10:26:05.551Z,43.53
2022-08-17T10:29:28.862Z,41.97
2022-08-17T10:33:02.847Z,40.60
2022-08-17T10:36:17.919Z,40.04
2022-08-17T10:39:36.580Z,40.18
2022-08-17T10:43:06.965Z,37.81
2022-08-17T10:46:52.458Z,37.37
2022-08-17T10:49:56.117Z,36.29
2022-08-17T10:52:57.779Z,35.76
2022-08-17T10:56:15.591Z,35.78
2022-08-17T10:59:35.722Z,35.13
2022-08-17T11:02:52.272Z,35.47
2022-08-17T11:06:06.017Z,35.22
2022-08-17T11:09:37.265Z,34.89
2022-08-17T11:13:13.041Z,34.65
2022-08-17T11:16:33.588Z,34.01
2022-08-17T11:20:07.545Z,34.25
2022-08-17T11:23:27.374Z,34.29
2022-08-17T11:26:32.700Z,34.68
2022-08-17T11:29:52.629Z,34.55
2022-08-17T11:32:58.457Z,34.71
2022-08-17T11:36:24.589Z,34.77
2022-08-17T11:39:44.963Z,34.87
2022-08-17T11:42:49.891Z,33.92
2022-08-17T11:46:04.943Z,34.35
2022-08-17T11:49:38.457Z,34.91
2022-08-17T11:52:44.509Z,35.18
2022-08-17T11:55:51.808Z,34.92
2022-08-17T11:58:53.594Z,34.26
2022-08-17T12:01:57.281Z,33.98
2022-08-17T12:05:17.396Z,33.94
2022-08-17T12:08:22.016Z,33.81
2022-08-17T12:12:10.950Z,34.57
2022-08-17T12:15:10.009Z,34.81
2022-08-17T12:18:20.572Z,35.06
2022-08-17T12:21:45.141Z,34.93
2022-08-17T12:25:02.391Z,34.68
2022-08-17T12:28:19.829Z,35.25
2022-08-17T12:31:27.198Z,35.49
2022-08-17T12:34:43.876Z,35.74
2022-08-17T12:37:49.386Z,35.65
2022-08-17T12:40:58.091Z,36.13
2022-08-17T12:44:04.147Z,36.46
2022-08-17T12:47:22.422Z,36.47
2022-08-17T12:50:28.478Z,36.67
2022-08-17T12:53:35.239Z,36.90
2022-08-17T12:56:37.525Z,38.21
2022-08-17T12:59:55.131Z,39.58
2022-08-17T13:03:03.559Z,40.05
2022-08-17T13:06:09.734Z,41.49
2022-08-17T13:09:15.355Z,42.12
2022-08-17T13:12:26.678Z,43.64
2022-08-17T13:15:32.936Z,45.22
2022-08-17T13:18:42.508Z,46.33
2022-08-17T13:21:48.335Z,46.41
2022-08-17T13:25:00.875Z,47.61
2022-08-17T13:28:02.904Z,46.78
2022-08-17T13:31:24.334Z,45.89
2022-08-17T13:34:27.050Z,47.17
2022-08-17T13:37:35.113Z,47.61
2022-08-17T13:40:38.999Z,46.91
2022-08-17T13:43:45.117Z,45.67
2022-08-17T13:46:52.528Z,44.10
2022-08-17T13:49:58.930Z,44.20
2022-08-17T13:53:01.011Z,44.26
2022-08-17T13:56:34.951Z,45.97
2022-08-17T13:59:53.596Z,47.06
2022-08-17T14:03:01.941Z,48.65
2022-08-17T14:06:08.849Z,47.26
2022-08-17T14:09:10.681Z,46.65
2022-08-17T14:12:19.353Z,46.58
2022-08-17T14:15:23.543Z,46.25
2022-08-17T14:18:56.413Z,46.97
2022-08-17T14:22:00.575Z,45.82
2022-08-17T14:25:02.515Z,47.69
2022-08-17T14:28:07.689Z,46.27
2022-08-17T14:31:10.972Z,42.91
2022-08-17T14:34:13.175Z,40.40
2022-08-17T14:37:14.881Z,38.88
2022-08-17T14:40:20.987Z,38.05
2022-08-17T14:43:22.735Z,37.04
2022-08-17T14:46:24.835Z,36.53
2022-08-17T14:49:26.498Z,36.92
2022-08-17T14:52:28.707Z,36.20
2022-08-17T14:55:31.248Z,35.87
2022-08-17T14:58:32.972Z,36.16
2022-08-17T15:01:35.459Z,36.15
2022-08-17T15:04:39.848Z,35.72
2022-08-17T15:07:45.138Z,35.69
2022-08-17T15:10:50.000Z,35.56
2022-08-17T15:13:52.892Z,35.74
2022-08-17T15:16:55.049Z,35.86
2022-08-17T15:19:57.093Z,35.53
2022-08-17T15:22:59.313Z,35.90
2022-08-17T15:26:01.391Z,35.79
2022-08-17T15:29:03.397Z,35.63
2022-08-17T15:32:05.183Z,35.34
2022-08-17T15:35:10.346Z,34.98
2022-08-17T15:38:13.059Z,34.97
2022-08-17T15:41:18.336Z,34.91
2022-08-17T15:44:20.031Z,35.03
2022-08-17T15:47:22.553Z,34.97
2022-08-17T15:50:24.227Z,34.76
2022-08-17T15:53:26.042Z,34.65
2022-08-17T15:56:28.798Z,34.46
2022-08-17T15:59:31.181Z,34.43
2022-08-17T16:03:44.507Z,34.33
2022-08-17T16:05:56.553Z,34.17
2022-08-17T16:09:00.434Z,34.09
2022-08-17T16:12:28.234Z,34.02
2022-08-17T16:15:32.053Z,33.88
2022-08-17T16:18:36.463Z,33.79
2022-08-17T16:21:43.171Z,33.75
2022-08-17T16:24:56.843Z,33.67
2022-08-17T16:28:00.168Z,33.53
2022-08-17T16:31:02.061Z,33.45
2022-08-17T16:34:17.696Z,33.45
2022-08-17T16:37:20.337Z,33.40
2022-08-17T16:40:26.061Z,33.41
2022-08-17T16:43:29.432Z,33.18
2022-08-17T16:46:31.507Z,33.09
2022-08-17T16:49:35.773Z,33.10
2022-08-17T16:52:40.538Z,32.96
2022-08-17T16:55:43.188Z,32.76
2022-08-17T16:58:46.146Z,32.68
2022-08-17T17:01:53.035Z,32.49
2022-08-17T17:05:25.459Z,32.42
2022-08-17T17:08:51.075Z,32.33
2022-08-17T17:12:01.019Z,32.13
2022-08-17T17:15:03.051Z,32.01
2022-08-17T17:18:07.317Z,31.81
2022-08-17T17:21:13.958Z,31.66
2022-08-17T17:24:57.469Z,31.53
2022-08-17T17:28:09.775Z,31.43
2022-08-17T17:31:25.370Z,31.21
2022-08-17T17:34:32.517Z,31.08
2022-08-17T17:37:35.624Z,30.87
2022-08-17T17:40:44.994Z,30.39
2022-08-17T17:43:52.917Z,30.01
2022-08-17T17:46:58.350Z,29.69
2022-08-17T17:50:02.370Z,29.37
2022-08-17T17:53:22.591Z,29.07
2022-08-17T17:57:17.767Z,28.94
2022-08-17T18:00:25.892Z,28.66
2022-08-17T18:04:01.507Z,28.40
2022-08-17T18:07:05.233Z,28.31
2022-08-17T18:10:32.966Z,28.19
2022-08-17T18:13:52.181Z,28.07
2022-08-17T18:16:56.670Z,27.98
2022-08-17T18:19:58.634Z,27.82
2022-08-17T18:23:00.292Z,27.70
2022-08-17T18:26:02.137Z,27.64
2022-08-17T18:29:25.497Z,27.65
2022-08-17T18:32:39.031Z,27.44
2022-08-17T18:35:58.662Z,27.40
2022-08-17T18:39:16.639Z,27.35
2022-08-17T18:42:25.987Z,27.20
2022-08-17T18:45:41.063Z,26.95
2022-08-17T18:48:59.247Z,26.98
2022-08-17T18:52:21.375Z,26.88
2022-08-17T18:55:31.395Z,26.70
2022-08-17T18:58:33.293Z,26.58
2022-08-17T19:01:54.665Z,26.54
2022-08-17T19:05:03.753Z,26.49
2022-08-17T19:08:17.725Z,26.51
2022-08-17T19:11:38.727Z,26.35
2022-08-17T19:14:41.568Z,26.37
2022-08-17T19:17:51.854Z,26.22
2022-08-17T19:21:14.866Z,26.05
2022-08-17T19:24:26.500Z,25.87
2022-08-17T19:27:52.270Z,25.79
2022-08-17T19:31:03.553Z,25.67
2022-08-17T19:34:05.729Z,25.60
2022-08-17T19:37:26.436Z,25.62
2022-08-17T19:40:52.216Z,25.59
2022-08-17T19:43:59.821Z,25.35
2022-08-17T19:47:57.854Z,25.32
2022-08-17T19:51:16.050Z,25.23
2022-08-17T19:54:55.989Z,25.30
2022-08-17T19:58:17.893Z,25.05
2022-08-17T20:01:34.969Z,24.99
2022-08-17T20:04:42.450Z,24.99
2022-08-17T20:08:02.565Z,25.03
2022-08-17T20:11:10.916Z,24.88
2022-08-17T20:14:22.730Z,24.83
2022-08-17T20:17:30.877Z,24.65
2022-08-17T20:20:42.993Z,24.61
2022-08-17T20:24:36.379Z,24.42
2022-08-17T20:28:05.544Z,24.25
2022-08-17T20:31:42.538Z,24.23
2022-08-17T20:34:46.679Z,24.30
2022-08-17T20:38:02.476Z,24.23
2022-08-17T20:41:04.074Z,23.99
2022-08-17T20:44:09.185Z,24.00
2022-08-17T20:47:32.007Z,23.96
2022-08-17T20:50:39.533Z,23.96
2022-08-17T20:53:46.993Z,23.83
2022-08-17T20:56:52.030Z,23.66
2022-08-17T20:59:55.298Z,23.73
2022-08-17T21:03:49.147Z,23.79
2022-08-17T21:07:43.666Z,23.87
2022-08-17T21:10:57.744Z,23.56
2022-08-17T21:14:29.380Z,23.61
2022-08-17T21:17:40.121Z,23.84
2022-08-17T21:21:01.785Z,24.11
2022-08-17T21:24:26.323Z,24.00
2022-08-17T21:27:58.891Z,23.98
2022-08-17T21:31:09.203Z,24.21
2022-08-17T21:34:17.077Z,24.34
2022-08-17T21:37:19.039Z,24.38
2022-08-17T21:40:29.550Z,24.55
2022-08-17T21:43:36.744Z,24.68
2022-08-17T21:46:42.969Z,24.55
2022-08-17T21:49:48.726Z,24.05
2022-08-17T21:52:54.510Z,24.19
2022-08-17T21:55:56.691Z,24.22
2022-08-17T21:59:03.672Z,23.98
2022-08-17T22:02:09.408Z,23.89
2022-08-17T22:05:14.572Z,24.04
2022-08-17T22:08:22.225Z,24.05
2022-08-17T22:11:24.227Z,24.02
2022-08-17T22:14:51.437Z,23.82
2022-08-17T22:17:56.035Z,23.85
2022-08-17T22:21:02.589Z,23.78
2022-08-17T22:24:15.994Z,23.84
2022-08-17T22:27:19.331Z,23.78
2022-08-17T22:30:56.578Z,23.74
2022-08-17T22:33:59.833Z,23.72
2022-08-17T22:37:27.827Z,23.71
2022-08-17T22:40:33.654Z,23.59
2022-08-17T22:43:38.488Z,23.61
2022-08-17T22:46:53.498Z,23.52
2022-08-17T22:49:59.026Z,23.22
2022-08-17T22:53:22.306Z,23.08
2022-08-17T22:56:44.539Z,23.11
2022-08-17T22:59:47.798Z,23.02
2022-08-17T23:03:07.030Z,23.12
2022-08-17T23:06:11.275Z,23.04
2022-08-17T23:09:13.186Z,22.83
2022-08-17T23:12:21.745Z,22.78
2022-08-17T23:15:26.451Z,22.58
2022-08-17T23:18:28.543Z,22.28
2022-08-17T23:21:31.423Z,22.00
2022-08-17T23:24:50.878Z,21.70
2022-08-17T23:27:52.954Z,21.40
2022-08-17T23:30:54.838Z,21.42
2022-08-17T23:33:58.974Z,21.38
2022-08-17T23:37:02.308Z,21.42
2022-08-17T23:40:08.669Z,21.41
2022-08-17T23:43:24.197Z,21.42
2022-08-17T23:46:34.938Z,21.37
2022-08-17T23:49:37.582Z,21.66
2022-08-17T23:52:41.293Z,21.81
2022-08-17T23:55:43.198Z,21.91
2022-08-17T23:58:45.002Z,21.87
